Aeroporto :
LOGIN :

Iscrizione | Disclaimer

   EN    FR    IT 

 










Sommario :    VFR   VFR Marginale   IFR   IFR Intensivo   IFR Molto Intensivo
Visibilità : 
Base nubi : 
>= 8 km
>= 3000ft
5 / 8 km
1000 / 3000 ft
1500m / 5 km
500 / 1000 ft
800 / 1500m
200 / 500 ft
< 800m
< 200 ft
Simboli :   Temporali  Nebbia  Neve Forte  Precipitazioni Forti  Vento > 20 kt
SIGMETs :   Varie  Temporali  Ghiacco  Turbolenza  Onda orograficha  Ceneri Vulcaniche






- Altitudine del aeroporto : 74 ft
- Codice IATA : MRS


LFML - Marseille / Marignane

ULTIMO METAR :
  • 271100Z AUTO 30022KT 9999 FEW021 BKN056 20/08 Q1007 TEMPO 32020G30KT

METARs OBSOLETI :
  • 271030Z AUTO 31021G31KT 9999 FEW016 BKN052 19/07 Q1007 NOSIG
  • 271000Z AUTO 31022KT 9999 FEW050 19/08 Q1007 TEMPO 32020G30KT
  • 270930Z AUTO 31021KT 9999 FEW046 19/08 Q1007 TEMPO 32020G30KT
  • 270900Z AUTO 31024KT 9999 FEW016 18/09 Q1007 TEMPO 32020G30KT
  • 270830Z AUTO 32021KT CAVOK 18/09 Q1007 TEMPO 32020G30KT
  • 270800Z AUTO 32020KT CAVOK 17/09 Q1007 TEMPO 32020G30KT

TAF TAF LFML
Valido dal 27 a 09 ore il 28 a 15 ore UTC


270800Z 2709/2815 32015KT CAVOK TX22/2713Z TN15/2805Z
TEMPO 2709/2717 32020G30KT
BECMG 2800/2802 VRB05KT
PROB30
TEMPO 2805/2808 -SHRA SCT014 SCT040TCU
BECMG 2808/2810 27015KT
PROB40
TEMPO 2811/2815 27017G30KT
ATIS : +33 4 42 31 15 15



MetMap, La meteo Aeronautica in un colpo d'occhio ! - Copyright ORBIFLY Dicembre 2007 - Disclaimer

ORBIFLY MET'MAP TEAM :

Programmazione e sviluppo : Alexandra Zaïnal
Concezione : Baudouin d'Aumeries
Supporto tecnico e logistico : Manuel Goepfert
Aiuto : Marc-Olivier Méhu
Aiuto per la traduzione : Arnaldo La Scala




FONTI E CREDITI :

   NOAA